createdAt,value
2018-11-04T00:00:00.211Z,101662.00
2018-11-04T00:02:28.041Z,101662.00
2018-11-04T00:04:56.029Z,101658.00
2018-11-04T00:07:23.981Z,101653.00
2018-11-04T00:09:51.899Z,101663.00
2018-11-04T00:12:19.880Z,101663.00
2018-11-04T00:14:47.855Z,101662.00
2018-11-04T00:17:15.741Z,101659.00
2018-11-04T00:19:43.682Z,101665.00
2018-11-04T00:22:11.623Z,101655.00
2018-11-04T00:24:39.560Z,101650.00
2018-11-04T00:27:07.508Z,101653.00
2018-11-04T00:29:35.426Z,101649.00
2018-11-04T00:32:03.394Z,101648.00
2018-11-04T00:34:31.323Z,101643.00
2018-11-04T00:36:59.272Z,101637.00
2018-11-04T00:39:27.216Z,101641.00
2018-11-04T00:41:55.127Z,101635.00
2018-11-04T00:44:23.082Z,101629.00
2018-11-04T00:46:51.015Z,101623.00
2018-11-04T00:49:18.991Z,101623.00
2018-11-04T00:51:46.912Z,101616.00
2018-11-04T00:54:14.830Z,101604.00
2018-11-04T00:56:42.769Z,101608.00
2018-11-04T00:59:10.740Z,101608.00
2018-11-04T01:01:38.714Z,101602.00
2018-11-04T01:04:06.617Z,101604.00
2018-11-04T01:06:34.535Z,101597.00
2018-11-04T01:09:02.557Z,101590.00
2018-11-04T01:11:30.435Z,101583.00
2018-11-04T01:13:58.471Z,101572.00
2018-11-04T01:16:26.439Z,101575.00
2018-11-04T01:18:54.356Z,101573.00
2018-11-04T01:21:22.326Z,101565.00
2018-11-04T01:23:50.251Z,101561.00
2018-11-04T01:26:18.284Z,101551.00
2018-11-04T01:28:46.235Z,101556.00
2018-11-04T01:31:14.161Z,101553.00
2018-11-04T01:33:42.130Z,101547.00
2018-11-04T01:36:10.085Z,101545.00
2018-11-04T01:38:38.035Z,101543.00
2018-11-04T01:41:05.956Z,101539.00
2018-11-04T01:43:33.887Z,101536.00
2018-11-04T01:46:01.854Z,101527.00
2018-11-04T01:48:29.801Z,101525.00
2018-11-04T01:50:57.724Z,101521.00
2018-11-04T01:53:25.672Z,101514.00
2018-11-04T01:55:53.619Z,101510.00
2018-11-04T01:58:21.579Z,101508.00
2018-11-04T02:00:49.522Z,101513.00
2018-11-04T02:03:17.413Z,101505.00
2018-11-04T02:05:45.339Z,101498.00
2018-11-04T02:08:13.275Z,101495.00
2018-11-04T02:10:41.225Z,101490.00
2018-11-04T02:13:09.175Z,101492.00
2018-11-04T02:15:37.107Z,101481.00
2018-11-04T02:18:05.268Z,101475.00
2018-11-04T02:20:33.221Z,101471.00
2018-11-04T02:23:01.212Z,101470.00
2018-11-04T02:25:29.166Z,101464.00
2018-11-04T02:27:57.092Z,101451.00
2018-11-04T02:30:25.028Z,101449.00
2018-11-04T02:32:52.961Z,101442.00
2018-11-04T02:35:20.863Z,101439.00
2018-11-04T02:37:48.844Z,101436.00
2018-11-04T02:40:16.791Z,101439.00
2018-11-04T02:42:44.753Z,101437.00
2018-11-04T02:45:12.647Z,101436.00
2018-11-04T02:47:40.592Z,101430.00
2018-11-04T02:50:09.300Z,101427.00
2018-11-04T02:52:37.273Z,101424.00
2018-11-04T02:55:05.820Z,101420.00
2018-11-04T02:57:33.844Z,101418.00
2018-11-04T03:00:01.775Z,101416.00
2018-11-04T03:02:29.707Z,101413.00
2018-11-04T03:04:57.663Z,101413.00
2018-11-04T03:07:25.598Z,101411.00
2018-11-04T03:09:53.507Z,101409.00
2018-11-04T03:12:21.439Z,101409.00
2018-11-04T03:14:49.374Z,101409.00
2018-11-04T03:17:17.312Z,101405.00
2018-11-04T03:19:45.259Z,101403.00
2018-11-04T03:22:13.177Z,101400.00
2018-11-04T03:24:41.205Z,101407.00
2018-11-04T03:27:09.048Z,101403.00
2018-11-04T03:29:36.989Z,101406.00
2018-11-04T03:32:05.251Z,101401.00
2018-11-04T03:34:33.177Z,101396.00
2018-11-04T03:37:01.111Z,101386.00
2018-11-04T03:39:29.044Z,101384.00
2018-11-04T03:41:57.038Z,101388.00
2018-11-04T03:44:24.970Z,101388.00
2018-11-04T03:46:52.891Z,101384.00
2018-11-04T03:49:20.836Z,101379.00
2018-11-04T03:51:48.759Z,101382.00
2018-11-04T03:54:16.726Z,101383.00
2018-11-04T03:56:44.648Z,101380.00
2018-11-04T03:59:12.586Z,101380.00
2018-11-04T04:01:40.502Z,101380.00
2018-11-04T04:04:08.451Z,101377.00
2018-11-04T04:06:36.435Z,101373.00
2018-11-04T04:09:05.623Z,101378.00
2018-11-04T04:11:33.550Z,101372.00
2018-11-04T04:14:01.463Z,101375.00
2018-11-04T04:16:29.372Z,101371.00
2018-11-04T04:18:57.283Z,101376.00
2018-11-04T04:21:25.171Z,101375.00
2018-11-04T04:23:53.093Z,101375.00
2018-11-04T04:26:20.992Z,101372.00
2018-11-04T04:28:48.983Z,101372.00
2018-11-04T04:31:16.874Z,101367.00
2018-11-04T04:33:44.773Z,101361.00
2018-11-04T04:36:12.685Z,101356.00
2018-11-04T04:38:40.575Z,101357.00
2018-11-04T04:41:08.489Z,101351.00
2018-11-04T04:43:36.375Z,101353.00
2018-11-04T04:46:04.448Z,101347.00
2018-11-04T04:48:32.348Z,101345.00
2018-11-04T04:51:00.344Z,101342.00
2018-11-04T04:53:28.246Z,101334.00
2018-11-04T04:55:57.395Z,101330.00
2018-11-04T04:58:25.345Z,101335.00
2018-11-04T05:00:53.828Z,101330.00
2018-11-04T05:03:22.031Z,101329.00
2018-11-04T05:05:49.948Z,101335.00
2018-11-04T05:08:17.843Z,101329.00
2018-11-04T05:10:45.753Z,101331.00
2018-11-04T05:13:13.711Z,101333.00
2018-11-04T05:15:41.636Z,101330.00
2018-11-04T05:18:09.572Z,101329.00
2018-11-04T05:20:37.487Z,101329.00
2018-11-04T05:23:05.472Z,101329.00
2018-11-04T05:25:33.391Z,101323.00
2018-11-04T05:28:01.343Z,101325.00
2018-11-04T05:30:29.267Z,101329.00
2018-11-04T05:32:57.164Z,101324.00
2018-11-04T05:35:25.104Z,101328.00
2018-11-04T05:37:52.994Z,101324.00
2018-11-04T05:40:20.892Z,101320.00
2018-11-04T05:42:48.909Z,101317.00
2018-11-04T05:45:16.803Z,101318.00
2018-11-04T05:47:44.712Z,101309.00
2018-11-04T05:50:12.612Z,101309.00
2018-11-04T05:52:40.527Z,101315.00
2018-11-04T05:55:09.028Z,101315.00
2018-11-04T05:57:36.971Z,101317.00
2018-11-04T06:00:06.101Z,101316.00
2018-11-04T06:02:34.007Z,101311.00
2018-11-04T06:05:01.936Z,101307.00
2018-11-04T06:07:29.839Z,101312.00
2018-11-04T06:09:57.757Z,101308.00
2018-11-04T06:12:25.711Z,101301.00
2018-11-04T06:14:53.795Z,101310.00
2018-11-04T06:17:21.731Z,101313.00
2018-11-04T06:19:49.615Z,101311.00
2018-11-04T06:22:17.548Z,101313.00
2018-11-04T06:24:45.467Z,101305.00
2018-11-04T06:27:13.396Z,101315.00
2018-11-04T06:29:41.320Z,101311.00
2018-11-04T06:32:09.232Z,101311.00
2018-11-04T06:34:37.242Z,101312.00
2018-11-04T06:37:05.365Z,101307.00
2018-11-04T06:39:33.290Z,101308.00
2018-11-04T06:42:01.295Z,101310.00
2018-11-04T06:44:29.227Z,101312.00
2018-11-04T06:46:57.176Z,101307.00
2018-11-04T06:49:25.047Z,101302.00
2018-11-04T06:51:53.012Z,101301.00
2018-11-04T06:54:20.907Z,101301.00
2018-11-04T06:56:48.831Z,101297.00
2018-11-04T06:59:16.770Z,101297.00
2018-11-04T07:01:44.663Z,101297.00
2018-11-04T07:04:17.911Z,101296.00
2018-11-04T07:06:45.852Z,101297.00
2018-11-04T07:09:14.548Z,101293.00
2018-11-04T07:11:42.634Z,101295.00
2018-11-04T07:14:10.539Z,101301.00
2018-11-04T07:16:38.459Z,101296.00
2018-11-04T07:19:06.680Z,101295.00
2018-11-04T07:21:34.775Z,101295.00
2018-11-04T07:24:03.268Z,101295.00
2018-11-04T07:26:31.208Z,101289.00
2018-11-04T07:28:59.192Z,101288.00
2018-11-04T07:31:27.132Z,101290.00
2018-11-04T07:33:55.035Z,101283.00
2018-11-04T07:36:22.967Z,101284.00
2018-11-04T07:38:51.863Z,101284.00
2018-11-04T07:41:20.226Z,101287.00
2018-11-04T07:43:48.184Z,101282.00
2018-11-04T07:46:16.411Z,101278.00
2018-11-04T07:48:44.327Z,101276.00
2018-11-04T07:51:12.279Z,101279.00
2018-11-04T07:53:40.216Z,101273.00
2018-11-04T07:56:08.158Z,101269.00
2018-11-04T07:58:36.097Z,101269.00
2018-11-04T08:01:04.036Z,101277.00
2018-11-04T08:03:31.962Z,101275.00
2018-11-04T08:05:59.823Z,101276.00
2018-11-04T08:08:27.747Z,101276.00
2018-11-04T08:10:55.636Z,101269.00
2018-11-04T08:13:23.588Z,101267.00
2018-11-04T08:15:51.466Z,101266.00
2018-11-04T08:18:19.419Z,101262.00
2018-11-04T08:20:47.407Z,101271.00
2018-11-04T08:23:15.336Z,101265.00
2018-11-04T08:25:43.243Z,101256.00
2018-11-04T08:28:11.164Z,101248.00
2018-11-04T08:30:39.059Z,101249.00
2018-11-04T08:33:06.987Z,101246.00
2018-11-04T08:35:34.912Z,101249.00
2018-11-04T08:38:02.844Z,101232.00
2018-11-04T08:40:30.882Z,101236.00
2018-11-04T08:42:58.698Z,101235.00
2018-11-04T08:45:26.663Z,101233.00
2018-11-04T08:47:54.612Z,101228.00
2018-11-04T08:50:22.504Z,101232.00
2018-11-04T08:52:50.427Z,101231.00
2018-11-04T08:55:18.453Z,101236.00
2018-11-04T08:57:46.387Z,101241.00
2018-11-04T09:00:15.531Z,101237.00
2018-11-04T09:02:44.036Z,101233.00
2018-11-04T09:05:11.960Z,101239.00
2018-11-04T09:07:40.102Z,101236.00
2018-11-04T09:10:10.231Z,101232.00
2018-11-04T09:12:38.172Z,101230.00
2018-11-04T09:15:06.769Z,101231.00
2018-11-04T09:17:34.928Z,101232.00
2018-11-04T09:20:03.085Z,101230.00
2018-11-04T09:22:31.040Z,101226.00
2018-11-04T09:24:58.935Z,101220.00
2018-11-04T09:27:26.863Z,101228.00
2018-11-04T09:29:54.784Z,101227.00
2018-11-04T09:32:22.705Z,101217.00
2018-11-04T09:34:50.677Z,101216.00
2018-11-04T09:37:18.602Z,101220.00
2018-11-04T09:39:46.496Z,101214.00
2018-11-04T09:42:14.467Z,101203.00
2018-11-04T09:44:42.387Z,101207.00
2018-11-04T09:47:11.124Z,101205.00
2018-11-04T09:49:39.039Z,101211.00
2018-11-04T09:52:06.937Z,101216.00
2018-11-04T09:54:34.830Z,101215.00
2018-11-04T09:57:02.771Z,101215.00
2018-11-04T09:59:30.683Z,101211.00
2018-11-04T10:01:58.604Z,101210.00
2018-11-04T10:04:26.539Z,101205.00
2018-11-04T10:06:54.484Z,101205.00
2018-11-04T10:09:22.377Z,101202.00
2018-11-04T10:11:50.271Z,101200.00
2018-11-04T10:14:18.196Z,101208.00
2018-11-04T10:16:46.123Z,101204.00
2018-11-04T10:19:14.172Z,101199.00
2018-11-04T10:21:42.084Z,101200.00
2018-11-04T10:24:10.040Z,101196.00
2018-11-04T10:26:37.935Z,101191.00
2018-11-04T10:29:06.676Z,101194.00
2018-11-04T10:31:34.664Z,101191.00
2018-11-04T10:34:02.627Z,101196.00
2018-11-04T10:36:30.540Z,101193.00
2018-11-04T10:38:58.475Z,101190.00
2018-11-04T10:41:26.391Z,101185.00
2018-11-04T10:43:54.320Z,101182.00
2018-11-04T10:46:22.317Z,101178.00
2018-11-04T10:48:50.260Z,101171.00
2018-11-04T10:51:18.200Z,101169.00
2018-11-04T10:53:46.168Z,101160.00
2018-11-04T10:56:14.060Z,101157.00
2018-11-04T10:58:41.972Z,101152.00
2018-11-04T11:01:11.040Z,101155.00
2018-11-04T11:03:39.991Z,101145.00
2018-11-04T11:06:08.147Z,101141.00
2018-11-04T11:08:36.072Z,101138.00
2018-11-04T11:11:04.352Z,101133.00
2018-11-04T11:13:32.335Z,101127.00
2018-11-04T11:16:00.246Z,101131.00
2018-11-04T11:18:28.316Z,101121.00
2018-11-04T11:20:56.524Z,101109.00
2018-11-04T11:23:24.456Z,101103.00
2018-11-04T11:25:52.387Z,101097.00
2018-11-04T11:28:20.303Z,101095.00
2018-11-04T11:30:48.216Z,101091.00
2018-11-04T11:33:16.135Z,101088.00
2018-11-04T11:35:44.034Z,101085.00
2018-11-04T11:38:11.963Z,101080.00
2018-11-04T11:40:39.883Z,101079.00
2018-11-04T11:43:07.811Z,101072.00
2018-11-04T11:45:35.739Z,101068.00
2018-11-04T11:48:03.697Z,101063.00
2018-11-04T11:50:31.628Z,101059.00
2018-11-04T11:52:59.546Z,101051.00
2018-11-04T11:55:27.464Z,101049.00
2018-11-04T11:57:55.359Z,101043.00
2018-11-04T12:00:23.499Z,101043.00
2018-11-04T12:02:51.448Z,101043.00
2018-11-04T12:05:19.444Z,101040.00
2018-11-04T12:07:47.316Z,101035.00
2018-11-04T12:10:15.236Z,101033.00
2018-11-04T12:12:43.151Z,101029.00
2018-11-04T12:15:12.314Z,101021.00
2018-11-04T12:17:40.266Z,101013.00
2018-11-04T12:20:09.358Z,101012.00
2018-11-04T12:22:37.288Z,101008.00
2018-11-04T12:25:06.412Z,101005.00
2018-11-04T12:27:34.331Z,101004.00
2018-11-04T12:30:02.238Z,101002.00
2018-11-04T12:32:30.171Z,101003.00
2018-11-04T12:34:58.136Z,100999.00
2018-11-04T12:37:25.975Z,100991.00
2018-11-04T12:39:53.912Z,100990.00
2018-11-04T12:42:21.871Z,100986.00
2018-11-04T12:44:49.793Z,100975.00
2018-11-04T12:47:17.727Z,100976.00
2018-11-04T12:49:45.654Z,100970.00
2018-11-04T12:52:13.645Z,100970.00
2018-11-04T12:54:41.505Z,100966.00
2018-11-04T12:57:09.411Z,100961.00
2018-11-04T12:59:37.375Z,100950.00
2018-11-04T13:02:05.425Z,100948.00
2018-11-04T13:04:33.256Z,100945.00
2018-11-04T13:07:01.164Z,100936.00
2018-11-04T13:09:29.083Z,100934.00
2018-11-04T13:11:57.025Z,100925.00
2018-11-04T13:14:24.922Z,100921.00
2018-11-04T13:16:52.872Z,100919.00
2018-11-04T13:19:20.772Z,100913.00
2018-11-04T13:21:48.715Z,100912.00
2018-11-04T13:24:16.663Z,100913.00
2018-11-04T13:26:44.572Z,100906.00
2018-11-04T13:29:12.464Z,100907.00
2018-11-04T13:31:40.387Z,100904.00
2018-11-04T13:34:08.295Z,100898.00
2018-11-04T13:36:36.224Z,100898.00
2018-11-04T13:39:05.684Z,100895.00
2018-11-04T13:41:33.737Z,100882.00
2018-11-04T13:44:01.646Z,100882.00
2018-11-04T13:46:29.589Z,100875.00
2018-11-04T13:48:57.527Z,100872.00
2018-11-04T13:51:25.440Z,100872.00
2018-11-04T13:53:53.371Z,100866.00
2018-11-04T13:56:22.001Z,100864.00
2018-11-04T13:58:50.764Z,100863.00
2018-11-04T14:01:18.675Z,100863.00
2018-11-04T14:03:46.616Z,100863.00
2018-11-04T14:06:14.547Z,100865.00
2018-11-04T14:08:42.740Z,100863.00
2018-11-04T14:11:10.677Z,100864.00
2018-11-04T14:13:38.621Z,100871.00
2018-11-04T14:16:06.536Z,100870.00
2018-11-04T14:18:34.462Z,100869.00
2018-11-04T14:21:02.792Z,100861.00
2018-11-04T14:23:30.872Z,100856.00
2018-11-04T14:25:58.795Z,100856.00
2018-11-04T14:28:26.745Z,100859.00
2018-11-04T14:30:54.787Z,100859.00
2018-11-04T14:33:22.696Z,100862.00
2018-11-04T14:35:50.651Z,100863.00
2018-11-04T14:38:18.623Z,100867.00
2018-11-04T14:40:46.595Z,100863.00
2018-11-04T14:43:14.504Z,100870.00
2018-11-04T14:45:42.436Z,100877.00
2018-11-04T14:48:10.343Z,100875.00
2018-11-04T14:50:38.280Z,100877.00
2018-11-04T14:53:06.331Z,100872.00
2018-11-04T14:55:34.130Z,100871.00
2018-11-04T14:58:02.065Z,100868.00
2018-11-04T15:00:34.447Z,100868.00
2018-11-04T15:03:03.112Z,100853.00
2018-11-04T15:05:31.048Z,100853.00
2018-11-04T15:07:58.939Z,100863.00
2018-11-04T15:10:26.845Z,100851.00
2018-11-04T15:12:54.771Z,100840.00
2018-11-04T15:15:22.691Z,100839.00
2018-11-04T15:17:50.623Z,100838.00
2018-11-04T15:20:18.541Z,100830.00
2018-11-04T15:22:48.658Z,100826.00
2018-11-04T15:25:17.735Z,100827.00
2018-11-04T15:27:45.932Z,100827.00
2018-11-04T15:30:13.829Z,100824.00
2018-11-04T15:32:42.099Z,100818.00
2018-11-04T15:35:10.221Z,100823.00
2018-11-04T15:37:38.168Z,100825.00
2018-11-04T15:40:07.669Z,100826.00
2018-11-04T15:42:35.567Z,100820.00
2018-11-04T15:45:03.488Z,100820.00
2018-11-04T15:47:31.401Z,100824.00
2018-11-04T15:49:59.383Z,100823.00
2018-11-04T15:52:27.300Z,100814.00
2018-11-04T15:54:55.242Z,100813.00
2018-11-04T15:57:23.267Z,100817.00
2018-11-04T15:59:51.070Z,100814.00
2018-11-04T16:02:19.008Z,100824.00
2018-11-04T16:04:46.928Z,100830.00
2018-11-04T16:07:14.848Z,100825.00
2018-11-04T16:09:42.783Z,100823.00
2018-11-04T16:12:11.034Z,100828.00
2018-11-04T16:14:39.294Z,100832.00
2018-11-04T16:17:07.204Z,100837.00
2018-11-04T16:19:35.140Z,100838.00
2018-11-04T16:22:03.064Z,100836.00
2018-11-04T16:24:31.215Z,100835.00
2018-11-04T16:26:59.412Z,100839.00
2018-11-04T16:29:27.331Z,100831.00
2018-11-04T16:31:55.354Z,100829.00
2018-11-04T16:34:23.207Z,100829.00
2018-11-04T16:36:51.167Z,100822.00
2018-11-04T16:39:19.112Z,100829.00
2018-11-04T16:41:47.006Z,100820.00
2018-11-04T16:44:15.160Z,100817.00
2018-11-04T16:46:42.884Z,100824.00
2018-11-04T16:49:10.860Z,100822.00
2018-11-04T16:51:39.088Z,100824.00
2018-11-04T16:54:07.351Z,100830.00
2018-11-04T16:56:35.316Z,100840.00
2018-11-04T16:59:03.263Z,100839.00
2018-11-04T17:01:31.291Z,100835.00
2018-11-04T17:03:59.371Z,100832.00
2018-11-04T17:06:27.242Z,100832.00
2018-11-04T17:08:55.152Z,100841.00
2018-11-04T17:11:23.279Z,100842.00
2018-11-04T17:13:51.095Z,100827.00
2018-11-04T17:16:19.048Z,100823.00
2018-11-04T17:18:46.990Z,100818.00
2018-11-04T17:21:14.927Z,100819.00
2018-11-04T17:23:42.867Z,100818.00
2018-11-04T17:26:10.894Z,100823.00
2018-11-04T17:28:38.912Z,100818.00
2018-11-04T17:31:06.847Z,100822.00
2018-11-04T17:33:34.886Z,100817.00
2018-11-04T17:36:03.143Z,100813.00
2018-11-04T17:38:30.813Z,100814.00
2018-11-04T17:40:58.740Z,100815.00
2018-11-04T17:43:26.704Z,100819.00
2018-11-04T17:45:54.663Z,100813.00
2018-11-04T17:48:22.584Z,100812.00
2018-11-04T17:50:50.498Z,100798.00
2018-11-04T17:53:18.483Z,100803.00
2018-11-04T17:55:46.410Z,100806.00
2018-11-04T17:58:14.585Z,100803.00
2018-11-04T18:00:42.509Z,100798.00
2018-11-04T18:03:10.503Z,100793.00
2018-11-04T18:05:38.560Z,100793.00
2018-11-04T18:08:06.527Z,100792.00
2018-11-04T18:10:34.469Z,100789.00
2018-11-04T18:13:02.424Z,100792.00
2018-11-04T18:15:30.371Z,100788.00
2018-11-04T18:17:58.316Z,100786.00
2018-11-04T18:20:26.244Z,100773.00
2018-11-04T18:22:54.215Z,100779.00
2018-11-04T18:25:22.151Z,100781.00
2018-11-04T18:27:50.091Z,100787.00
2018-11-04T18:30:18.026Z,100787.00
2018-11-04T18:32:46.617Z,100783.00
2018-11-04T18:35:14.676Z,100785.00
2018-11-04T18:37:42.859Z,100786.00
2018-11-04T18:40:12.775Z,100776.00
2018-11-04T18:42:40.775Z,100784.00
2018-11-04T18:45:09.745Z,100776.00
2018-11-04T18:47:37.812Z,100779.00
2018-11-04T18:50:06.787Z,100779.00
2018-11-04T18:52:34.733Z,100778.00
2018-11-04T18:55:02.619Z,100781.00
2018-11-04T18:57:30.549Z,100779.00
2018-11-04T18:59:58.475Z,100774.00
2018-11-04T19:02:26.423Z,100771.00
2018-11-04T19:04:54.399Z,100767.00
2018-11-04T19:07:22.349Z,100770.00
2018-11-04T19:09:50.278Z,100764.00
2018-11-04T19:12:18.211Z,100757.00
2018-11-04T19:14:46.119Z,100751.00
2018-11-04T19:17:14.052Z,100752.00
2018-11-04T19:19:41.988Z,100757.00
2018-11-04T19:22:09.943Z,100753.00
2018-11-04T19:24:37.888Z,100758.00
2018-11-04T19:27:05.823Z,100761.00
2018-11-04T19:29:33.768Z,100764.00
2018-11-04T19:32:01.849Z,100762.00
2018-11-04T19:34:29.776Z,100760.00
2018-11-04T19:36:57.687Z,100754.00
2018-11-04T19:39:25.626Z,100751.00
2018-11-04T19:41:53.577Z,100748.00
2018-11-04T19:44:21.547Z,100750.00
2018-11-04T19:46:49.487Z,100748.00
2018-11-04T19:49:17.460Z,100743.00
2018-11-04T19:51:45.704Z,100746.00
2018-11-04T19:54:13.653Z,100748.00
2018-11-04T19:56:41.626Z,100755.00
2018-11-04T19:59:09.554Z,100747.00
2018-11-04T20:01:37.507Z,100749.00
2018-11-04T20:04:05.883Z,100746.00
2018-11-04T20:06:33.820Z,100744.00
2018-11-04T20:09:07.139Z,100748.00
2018-11-04T20:11:35.075Z,100747.00
2018-11-04T20:14:23.564Z,100742.00
2018-11-04T20:16:52.630Z,100745.00
2018-11-04T20:19:26.112Z,100731.00
2018-11-04T20:21:54.591Z,100729.00
2018-11-04T20:24:27.958Z,100728.00
2018-11-04T20:26:55.915Z,100720.00
2018-11-04T20:29:24.192Z,100726.00
2018-11-04T20:31:57.657Z,100729.00
2018-11-04T20:34:25.591Z,100733.00
2018-11-04T20:36:53.519Z,100735.00
2018-11-04T20:39:26.964Z,100744.00
2018-11-04T20:41:54.875Z,100745.00
2018-11-04T20:44:22.832Z,100746.00
2018-11-04T20:46:50.793Z,100751.00
2018-11-04T20:49:24.131Z,100734.00
2018-11-04T20:51:52.108Z,100725.00
2018-11-04T20:54:19.995Z,100715.00
2018-11-04T20:56:53.392Z,100710.00
2018-11-04T20:59:21.332Z,100711.00
2018-11-04T21:01:49.332Z,100709.00
2018-11-04T21:04:17.163Z,100706.00
2018-11-04T21:06:45.184Z,100709.00
2018-11-04T21:09:13.167Z,100706.00
2018-11-04T21:11:41.091Z,100703.00
2018-11-04T21:14:09.019Z,100707.00
2018-11-04T21:16:37.054Z,100705.00
2018-11-04T21:19:04.975Z,100697.00
2018-11-04T21:21:33.145Z,100695.00
2018-11-04T21:24:01.075Z,100697.00
2018-11-04T21:26:29.007Z,100692.00
2018-11-04T21:28:57.082Z,100693.00
2018-11-04T21:31:24.937Z,100684.00
2018-11-04T21:33:52.882Z,100685.00
2018-11-04T21:36:22.146Z,100689.00
2018-11-04T21:38:50.061Z,100689.00
2018-11-04T21:41:18.014Z,100693.00
2018-11-04T21:43:45.997Z,100688.00
2018-11-04T21:46:13.915Z,100690.00
2018-11-04T21:48:42.013Z,100681.00
2018-11-04T21:51:09.984Z,100674.00
2018-11-04T21:53:38.096Z,100666.00
2018-11-04T21:56:06.558Z,100660.00
2018-11-04T21:58:34.415Z,100655.00
2018-11-04T22:01:02.358Z,100645.00
2018-11-04T22:03:30.432Z,100646.00
2018-11-04T22:05:58.232Z,100643.00
2018-11-04T22:08:26.176Z,100647.00
2018-11-04T22:10:54.179Z,100651.00
2018-11-04T22:13:22.119Z,100648.00
2018-11-04T22:15:50.096Z,100646.00
2018-11-04T22:18:18.034Z,100642.00
2018-11-04T22:20:45.995Z,100636.00
2018-11-04T22:23:13.935Z,100637.00
2018-11-04T22:25:41.874Z,100639.00
2018-11-04T22:28:09.820Z,100627.00
2018-11-04T22:30:37.767Z,100628.00
2018-11-04T22:33:05.710Z,100616.00
2018-11-04T22:35:33.643Z,100622.00
2018-11-04T22:38:01.609Z,100625.00
2018-11-04T22:40:29.528Z,100622.00
2018-11-04T22:42:57.474Z,100620.00
2018-11-04T22:45:25.392Z,100623.00
2018-11-04T22:47:53.327Z,100630.00
2018-11-04T22:50:21.275Z,100628.00
2018-11-04T22:52:49.199Z,100613.00
2018-11-04T22:55:17.125Z,100611.00
2018-11-04T22:57:45.436Z,100610.00
2018-11-04T23:00:18.803Z,100615.00
2018-11-04T23:02:48.252Z,100619.00
2018-11-04T23:05:21.512Z,100620.00
2018-11-04T23:07:49.627Z,100614.00
2018-11-04T23:10:17.547Z,100613.00
2018-11-04T23:12:45.474Z,100615.00
2018-11-04T23:15:13.537Z,100614.00
2018-11-04T23:17:41.567Z,100617.00
2018-11-04T23:20:09.500Z,100621.00
2018-11-04T23:22:37.745Z,100610.00
2018-11-04T23:25:06.882Z,100615.00
2018-11-04T23:27:34.795Z,100610.00
2018-11-04T23:30:02.735Z,100610.00
2018-11-04T23:32:30.670Z,100614.00
2018-11-04T23:34:58.694Z,100611.00
2018-11-04T23:37:26.616Z,100609.00
2018-11-04T23:39:54.529Z,100610.00
2018-11-04T23:42:22.496Z,100598.00
2018-11-04T23:44:50.410Z,100599.00
2018-11-04T23:47:18.357Z,100594.00
2018-11-04T23:49:46.304Z,100574.00
2018-11-04T23:52:14.270Z,100573.00
2018-11-04T23:54:42.163Z,100578.00
2018-11-04T23:57:10.184Z,100572.00
2018-11-04T23:59:38.111Z,100574.00
